createdAt,value
2018-09-23T00:01:24.525Z,12.55
2018-09-23T00:03:52.797Z,12.80
2018-09-23T00:06:21.082Z,12.85
2018-09-23T00:08:49.347Z,12.37
2018-09-23T00:11:17.613Z,12.65
2018-09-23T00:13:45.901Z,12.20
2018-09-23T00:16:14.202Z,13.20
2018-09-23T00:18:42.461Z,13.25
2018-09-23T00:21:10.697Z,13.88
2018-09-23T00:23:38.952Z,13.00
2018-09-23T00:26:07.233Z,13.62
2018-09-23T00:28:35.497Z,13.50
2018-09-23T00:31:03.747Z,14.58
2018-09-23T00:33:32.092Z,14.18
2018-09-23T00:36:00.366Z,13.80
2018-09-23T00:38:28.670Z,14.58
2018-09-23T00:40:56.942Z,13.80
2018-09-23T00:43:25.237Z,13.58
2018-09-23T00:45:53.489Z,14.30
2018-09-23T00:48:21.744Z,14.20
2018-09-23T00:50:50.035Z,15.08
2018-09-23T00:53:18.333Z,14.90
2018-09-23T00:55:46.563Z,15.08
2018-09-23T00:58:14.826Z,14.35
2018-09-23T01:00:43.177Z,14.40
2018-09-23T01:03:11.441Z,15.98
2018-09-23T01:05:39.692Z,15.80
2018-09-23T01:08:07.924Z,15.40
2018-09-23T01:10:36.180Z,16.00
2018-09-23T01:13:04.497Z,16.30
2018-09-23T01:15:32.774Z,14.90
2018-09-23T01:18:01.014Z,15.35
2018-09-23T01:20:29.352Z,15.35
2018-09-23T01:22:57.609Z,15.95
2018-09-23T01:25:25.873Z,16.77
2018-09-23T01:27:54.156Z,17.20
2018-09-23T01:30:22.429Z,16.30
2018-09-23T01:32:50.764Z,17.02
2018-09-23T01:35:19.040Z,16.90
2018-09-23T01:37:47.281Z,17.10
2018-09-23T01:40:15.562Z,16.27
2018-09-23T01:42:43.829Z,16.52
2018-09-23T01:45:12.109Z,17.13
2018-09-23T01:47:40.401Z,16.37
2018-09-23T01:50:08.688Z,16.57
2018-09-23T01:52:36.944Z,16.75
2018-09-23T01:55:05.497Z,18.95
2018-09-23T01:57:33.745Z,19.15
2018-09-23T02:00:02.009Z,18.73
2018-09-23T02:02:30.250Z,20.07
2018-09-23T02:04:58.521Z,18.37
2018-09-23T02:07:26.769Z,19.70
2018-09-23T02:09:55.033Z,18.97
2018-09-23T02:12:23.322Z,19.62
2018-09-23T02:14:51.585Z,20.27
2018-09-23T02:17:19.837Z,19.80
2018-09-23T02:19:48.125Z,19.27
2018-09-23T02:22:16.360Z,18.70
2018-09-23T02:24:44.609Z,18.97
2018-09-23T02:27:12.893Z,18.37
2018-09-23T02:29:41.138Z,18.60
2018-09-23T02:32:09.398Z,18.30
2018-09-23T02:34:37.669Z,19.50
2018-09-23T02:37:05.942Z,19.25
2018-09-23T02:39:34.213Z,20.05
2018-09-23T02:42:02.526Z,20.12
2018-09-23T02:44:30.805Z,18.98
2018-09-23T02:46:59.078Z,19.70
2018-09-23T02:49:27.328Z,18.73
2018-09-23T02:51:55.619Z,20.20
2018-09-23T02:54:23.927Z,19.87
2018-09-23T02:56:52.195Z,19.73
2018-09-23T02:59:20.457Z,19.73
2018-09-23T03:01:48.733Z,20.10
2018-09-23T03:04:16.992Z,21.40
2018-09-23T03:06:45.269Z,22.67
2018-09-23T03:09:13.527Z,23.90
2018-09-23T03:11:41.829Z,23.07
2018-09-23T03:14:10.077Z,22.62
2018-09-23T03:16:38.384Z,22.93
2018-09-23T03:19:06.622Z,23.40
2018-09-23T03:21:34.897Z,22.95
2018-09-23T03:24:03.193Z,22.37
2018-09-23T03:26:33.180Z,23.92
2018-09-23T03:29:02.175Z,24.07
2018-09-23T03:31:31.149Z,25.70
2018-09-23T03:34:00.091Z,23.90
2018-09-23T03:36:29.225Z,24.10
2018-09-23T03:38:58.073Z,24.00
2018-09-23T03:41:27.231Z,24.03
2018-09-23T03:43:56.609Z,24.55
2018-09-23T03:46:25.716Z,25.08
2018-09-23T03:48:55.818Z,23.42
2018-09-23T03:51:24.768Z,21.60
2018-09-23T03:53:53.580Z,23.30
2018-09-23T03:56:22.616Z,24.55
2018-09-23T03:58:51.537Z,25.20
2018-09-23T04:01:20.319Z,22.50
2018-09-23T04:03:50.550Z,22.80
2018-09-23T04:06:19.671Z,22.25
2018-09-23T04:08:48.629Z,23.83
2018-09-23T04:11:17.622Z,22.40
2018-09-23T04:13:46.587Z,21.90
2018-09-23T04:16:15.518Z,22.97
2018-09-23T04:18:44.479Z,22.00
2018-09-23T04:21:13.443Z,22.80
2018-09-23T04:23:42.221Z,21.20
2018-09-23T04:26:11.516Z,20.40
2018-09-23T04:28:40.548Z,19.27
2018-09-23T04:31:09.456Z,19.20
2018-09-23T04:33:38.680Z,18.80
2018-09-23T04:36:07.762Z,18.47
2018-09-23T04:38:36.825Z,18.60
2018-09-23T04:41:05.920Z,18.80
2018-09-23T04:43:34.910Z,19.07
2018-09-23T04:46:03.908Z,18.53
2018-09-23T04:48:32.898Z,17.67
2018-09-23T04:51:01.901Z,17.90
2018-09-23T04:53:30.940Z,18.20
2018-09-23T04:55:59.922Z,17.55
2018-09-23T04:58:28.662Z,19.55
2018-09-23T05:00:57.306Z,18.42
2018-09-23T05:03:25.887Z,18.47
2018-09-23T05:05:55.265Z,18.50
2018-09-23T05:08:24.547Z,17.83
2018-09-23T05:10:53.635Z,19.80
2018-09-23T05:13:22.637Z,18.60
2018-09-23T05:15:51.652Z,19.30
2018-09-23T05:18:20.731Z,18.55
2018-09-23T05:20:49.535Z,18.70
2018-09-23T05:23:18.446Z,18.52
2018-09-23T05:25:47.340Z,18.70
2018-09-23T05:28:16.992Z,18.35
2018-09-23T05:30:45.917Z,18.10
2018-09-23T05:33:14.963Z,17.13
2018-09-23T05:35:43.959Z,16.35
2018-09-23T05:38:12.498Z,16.33
2018-09-23T05:40:41.718Z,16.20
2018-09-23T05:43:10.341Z,15.90
2018-09-23T05:45:39.332Z,15.58
2018-09-23T05:48:07.681Z,15.40
2018-09-23T05:50:36.025Z,15.80
2018-09-23T05:53:04.376Z,17.35
2018-09-23T05:55:32.663Z,18.30
2018-09-23T05:58:01.013Z,16.97
2018-09-23T06:00:31.779Z,16.73
2018-09-23T06:03:00.120Z,16.82
2018-09-23T06:05:28.423Z,16.55
2018-09-23T06:07:56.713Z,15.03
2018-09-23T06:10:25.048Z,14.80
2018-09-23T06:12:53.342Z,14.90
2018-09-23T06:15:21.606Z,14.80
2018-09-23T06:17:49.888Z,14.30
2018-09-23T06:20:18.117Z,14.60
2018-09-23T06:22:46.360Z,16.93
2018-09-23T06:25:14.666Z,18.50
2018-09-23T06:27:42.897Z,18.42
2018-09-23T06:30:11.157Z,17.47
2018-09-23T06:32:39.431Z,15.80
2018-09-23T06:35:07.689Z,16.30
2018-09-23T06:37:35.932Z,16.37
2018-09-23T06:40:04.237Z,16.27
2018-09-23T06:42:32.486Z,16.17
2018-09-23T06:45:00.745Z,17.37
2018-09-23T06:47:28.982Z,18.65
2018-09-23T06:49:57.224Z,17.47
2018-09-23T06:52:25.481Z,16.42
2018-09-23T06:54:53.743Z,16.95
2018-09-23T06:57:22.033Z,18.10
2018-09-23T06:59:50.377Z,17.10
2018-09-23T07:02:18.603Z,17.07
2018-09-23T07:04:46.892Z,16.00
2018-09-23T07:07:15.120Z,15.70
2018-09-23T07:09:43.377Z,16.02
2018-09-23T07:12:11.625Z,15.20
2018-09-23T07:14:39.930Z,15.68
2018-09-23T07:17:08.254Z,15.70
2018-09-23T07:19:36.536Z,14.97
2018-09-23T07:22:05.893Z,14.80
2018-09-23T07:24:34.173Z,14.07
2018-09-23T07:27:02.415Z,14.27
2018-09-23T07:29:31.397Z,14.85
2018-09-23T07:31:59.636Z,13.53
2018-09-23T07:34:27.904Z,14.30
2018-09-23T07:36:56.183Z,14.83
2018-09-23T07:39:24.488Z,14.70
2018-09-23T07:41:52.729Z,13.28
2018-09-23T07:44:20.981Z,14.25
2018-09-23T07:46:49.217Z,12.80
2018-09-23T07:49:17.677Z,12.20
2018-09-23T07:51:45.908Z,11.70
2018-09-23T07:54:14.165Z,12.30
2018-09-23T07:56:42.503Z,12.10
2018-09-23T07:59:10.743Z,12.00
2018-09-23T08:01:38.981Z,10.43
2018-09-23T08:04:07.295Z,11.50
2018-09-23T08:06:35.528Z,11.83
2018-09-23T08:09:04.444Z,11.17
2018-09-23T08:11:32.714Z,11.73
2018-09-23T08:14:01.204Z,11.90
2018-09-23T08:16:29.276Z,10.80
2018-09-23T08:18:57.553Z,10.97
2018-09-23T08:21:25.847Z,10.63
2018-09-23T08:23:54.226Z,10.50
2018-09-23T08:26:22.501Z,10.55
2018-09-23T08:28:50.756Z,10.50
2018-09-23T08:31:19.045Z,10.00
2018-09-23T08:33:47.305Z,9.60
2018-09-23T08:36:15.668Z,8.50
2018-09-23T08:38:43.953Z,8.58
2018-09-23T08:41:12.225Z,8.80
2018-09-23T08:43:40.492Z,8.55
2018-09-23T08:46:08.773Z,9.33
2018-09-23T08:48:37.058Z,9.48
2018-09-23T08:51:05.380Z,9.13
2018-09-23T08:53:34.036Z,10.00
2018-09-23T08:56:02.343Z,8.60
2018-09-23T08:58:31.824Z,9.23
2018-09-23T09:01:00.730Z,9.20
2018-09-23T09:03:29.359Z,9.13
2018-09-23T09:05:58.340Z,8.55
2018-09-23T09:08:27.249Z,8.90
2018-09-23T09:10:56.329Z,8.73
2018-09-23T09:13:25.432Z,8.70
2018-09-23T09:15:54.294Z,9.20
2018-09-23T09:18:23.057Z,9.78
2018-09-23T09:20:52.490Z,10.17
2018-09-23T09:23:21.585Z,10.30
2018-09-23T09:25:50.534Z,10.17
2018-09-23T09:28:18.937Z,10.47
2018-09-23T09:30:48.123Z,10.72
2018-09-23T09:33:16.487Z,11.10
2018-09-23T09:35:44.739Z,11.43
2018-09-23T09:38:13.029Z,11.15
2018-09-23T09:40:41.516Z,11.12
2018-09-23T09:43:09.797Z,11.17
2018-09-23T09:45:38.117Z,10.75
2018-09-23T09:48:06.371Z,10.90
2018-09-23T09:50:34.826Z,11.40
2018-09-23T09:53:03.118Z,11.70
2018-09-23T09:55:31.471Z,11.53
2018-09-23T09:57:59.677Z,11.78
2018-09-23T10:00:35.117Z,11.20
2018-09-23T10:03:04.564Z,11.40
2018-09-23T10:05:32.893Z,13.10
2018-09-23T10:08:01.143Z,11.33
2018-09-23T10:10:29.452Z,12.30
2018-09-23T10:12:57.857Z,12.80
2018-09-23T10:15:26.881Z,12.75
2018-09-23T10:17:55.136Z,13.20
2018-09-23T10:20:24.490Z,12.35
2018-09-23T10:22:53.267Z,12.87
2018-09-23T10:25:21.534Z,12.33
2018-09-23T10:27:49.809Z,13.87
2018-09-23T10:30:18.040Z,13.57
2018-09-23T10:32:46.429Z,12.03
2018-09-23T10:35:14.696Z,11.83
2018-09-23T10:37:42.964Z,11.55
2018-09-23T10:40:11.244Z,11.43
2018-09-23T10:42:39.521Z,11.50
2018-09-23T10:45:07.785Z,12.20
2018-09-23T10:47:37.170Z,11.48
2018-09-23T10:50:05.510Z,11.25
2018-09-23T10:52:33.817Z,11.90
2018-09-23T10:55:02.193Z,11.85
2018-09-23T10:57:30.456Z,12.73
2018-09-23T10:59:58.745Z,12.28
2018-09-23T11:02:27.288Z,11.83
2018-09-23T11:04:55.540Z,12.00
2018-09-23T11:07:23.856Z,11.53
2018-09-23T11:09:52.226Z,11.73
2018-09-23T11:12:20.456Z,11.37
2018-09-23T11:14:48.933Z,11.10
2018-09-23T11:17:17.188Z,17.73
2018-09-23T11:19:45.456Z,12.93
2018-09-23T11:22:13.740Z,13.38
2018-09-23T11:24:41.987Z,13.07
2018-09-23T11:27:12.137Z,13.48
2018-09-23T11:29:40.381Z,14.55
2018-09-23T11:32:08.677Z,14.93
2018-09-23T11:34:37.522Z,15.70
2018-09-23T11:37:05.832Z,19.30
2018-09-23T11:39:34.099Z,14.60
2018-09-23T11:42:02.380Z,15.60
2018-09-23T11:44:32.831Z,15.23
2018-09-23T11:47:01.832Z,14.83
2018-09-23T11:49:30.093Z,15.58
2018-09-23T11:51:58.429Z,16.05
2018-09-23T11:54:27.839Z,15.25
2018-09-23T11:56:57.009Z,15.17
2018-09-23T11:59:25.287Z,16.93
2018-09-23T12:01:55.210Z,16.90
2018-09-23T12:04:23.542Z,15.67
2018-09-23T12:06:51.785Z,14.83
2018-09-23T12:09:20.057Z,14.30
2018-09-23T12:11:48.320Z,17.70
2018-09-23T12:14:16.609Z,17.00
2018-09-23T12:16:44.873Z,15.93
2018-09-23T12:19:13.133Z,16.37
2018-09-23T12:21:41.405Z,17.87
2018-09-23T12:24:09.693Z,16.02
2018-09-23T12:26:38.152Z,15.90
2018-09-23T12:29:06.782Z,21.20
2018-09-23T12:31:35.169Z,24.67
2018-09-23T12:34:03.856Z,17.10
2018-09-23T12:36:32.140Z,18.75
2018-09-23T12:39:00.445Z,16.45
2018-09-23T12:41:28.745Z,16.97
2018-09-23T12:43:57.123Z,18.17
2018-09-23T12:46:25.483Z,19.30
2018-09-23T12:48:53.796Z,21.53
2018-09-23T12:51:22.092Z,20.43
2018-09-23T12:53:50.390Z,19.32
2018-09-23T12:56:18.835Z,18.82
2018-09-23T12:58:47.193Z,19.20
2018-09-23T13:01:15.941Z,19.35
2018-09-23T13:03:44.384Z,20.25
2018-09-23T13:06:12.665Z,18.65
2018-09-23T13:08:40.954Z,17.40
2018-09-23T13:11:09.219Z,15.23
2018-09-23T13:13:37.518Z,18.00
2018-09-23T13:16:06.601Z,16.87
2018-09-23T13:18:34.960Z,14.05
2018-09-23T13:21:03.518Z,15.40
2018-09-23T13:23:31.784Z,9.08
2018-09-23T13:26:00.097Z,16.40
2018-09-23T13:28:28.421Z,12.20
2018-09-23T13:30:56.700Z,8.20
2018-09-23T13:33:24.953Z,5.47
2018-09-23T13:35:53.377Z,5.70
2018-09-23T13:38:21.639Z,5.00
2018-09-23T13:40:49.874Z,5.10
2018-09-23T13:43:18.164Z,4.77
2018-09-23T13:45:46.428Z,4.97
2018-09-23T13:48:14.698Z,5.58
2018-09-23T13:50:42.936Z,6.07
2018-09-23T13:53:11.243Z,6.20
2018-09-23T13:55:39.500Z,7.80
2018-09-23T13:58:07.775Z,8.67
2018-09-23T14:00:36.016Z,9.17
2018-09-23T14:03:04.312Z,8.70
2018-09-23T14:05:33.113Z,10.90
2018-09-23T14:08:01.379Z,9.20
2018-09-23T14:10:29.671Z,11.73
2018-09-23T14:12:57.985Z,10.20
2018-09-23T14:15:26.271Z,11.27
2018-09-23T14:17:54.521Z,10.10
2018-09-23T14:20:22.785Z,8.30
2018-09-23T14:22:51.045Z,6.37
2018-09-23T14:25:19.324Z,6.28
2018-09-23T14:27:47.584Z,5.80
2018-09-23T14:30:15.909Z,5.53
2018-09-23T14:32:44.174Z,5.60
2018-09-23T14:35:12.449Z,6.00
2018-09-23T14:37:40.724Z,6.40
2018-09-23T14:40:09.041Z,7.20
2018-09-23T14:42:37.277Z,7.83
2018-09-23T14:45:06.065Z,8.50
2018-09-23T14:47:34.336Z,8.63
2018-09-23T14:50:02.630Z,8.60
2018-09-23T14:52:31.928Z,9.10
2018-09-23T14:55:00.225Z,8.43
2018-09-23T14:57:28.488Z,9.60
2018-09-23T15:00:03.064Z,10.05
2018-09-23T15:02:25.029Z,8.80
2018-09-23T15:04:53.302Z,8.23
2018-09-23T15:07:21.629Z,9.50
2018-09-23T15:09:50.114Z,6.30
2018-09-23T15:12:18.373Z,7.43
2018-09-23T15:14:46.719Z,4.92
2018-09-23T15:17:14.966Z,3.80
2018-09-23T15:19:43.342Z,3.40
2018-09-23T15:22:12.189Z,3.50
2018-09-23T15:24:40.481Z,3.60
2018-09-23T15:27:09.777Z,3.37
2018-09-23T15:29:38.050Z,3.43
2018-09-23T15:32:06.359Z,3.90
2018-09-23T15:34:34.641Z,4.30
2018-09-23T15:37:02.885Z,3.75
2018-09-23T15:39:31.145Z,4.10
2018-09-23T15:41:59.413Z,4.00
2018-09-23T15:44:27.661Z,4.50
2018-09-23T15:46:55.898Z,5.60
2018-09-23T15:49:24.184Z,5.30
2018-09-23T15:51:52.445Z,5.40
2018-09-23T15:54:20.701Z,7.00
2018-09-23T15:56:48.958Z,6.80
2018-09-23T15:59:17.232Z,6.20
2018-09-23T16:01:46.842Z,5.35
2018-09-23T16:04:15.085Z,5.92
2018-09-23T16:06:43.398Z,5.07
2018-09-23T16:09:11.653Z,4.90
2018-09-23T16:11:40.162Z,4.20
2018-09-23T16:14:08.633Z,3.98
2018-09-23T16:16:36.936Z,4.60
2018-09-23T16:19:05.168Z,4.60
2018-09-23T16:21:33.473Z,5.17
2018-09-23T16:24:01.769Z,3.90
2018-09-23T16:26:31.158Z,3.90
2018-09-23T16:28:59.505Z,3.80
2018-09-23T16:31:27.857Z,4.30
2018-09-23T16:33:56.241Z,3.50
2018-09-23T16:36:24.555Z,4.00
2018-09-23T16:38:53.009Z,3.50
2018-09-23T16:41:21.285Z,4.20
2018-09-23T16:43:49.556Z,4.25
2018-09-23T16:46:17.876Z,5.03
2018-09-23T16:48:46.190Z,4.07
2018-09-23T16:51:14.473Z,3.77
2018-09-23T16:53:42.733Z,3.00
2018-09-23T16:56:11.056Z,3.70
2018-09-23T16:58:39.311Z,2.65
2018-09-23T17:01:07.624Z,3.00
2018-09-23T17:03:36.024Z,52.73
2018-09-23T17:06:04.448Z,4.17
2018-09-23T17:08:32.804Z,10.97
2018-09-23T17:11:01.147Z,14.00
2018-09-23T17:13:29.452Z,47.35
2018-09-23T17:15:58.570Z,6.83
2018-09-23T17:18:27.041Z,12.50
2018-09-23T17:20:55.422Z,62.33
2018-09-23T17:23:23.738Z,31.93
2018-09-23T17:25:52.058Z,11.63
2018-09-23T17:28:20.330Z,4.50
2018-09-23T17:30:48.684Z,3.60
2018-09-23T17:33:16.987Z,3.13
2018-09-23T17:35:46.183Z,3.20
2018-09-23T17:38:14.479Z,3.58
2018-09-23T17:40:42.786Z,3.23
2018-09-23T17:43:11.140Z,3.00
2018-09-23T17:45:39.441Z,3.20
2018-09-23T17:48:07.821Z,4.10
2018-09-23T17:50:37.286Z,3.83
2018-09-23T17:53:05.593Z,4.10
2018-09-23T17:55:34.073Z,4.20
2018-09-23T17:58:02.341Z,4.10
2018-09-23T18:00:30.688Z,4.15
2018-09-23T18:02:59.469Z,3.80
2018-09-23T18:05:28.196Z,4.37
2018-09-23T18:07:56.899Z,3.63
2018-09-23T18:10:25.173Z,4.00
2018-09-23T18:12:53.530Z,4.70
2018-09-23T18:15:21.853Z,4.00
2018-09-23T18:17:50.292Z,4.00
2018-09-23T18:20:18.566Z,2.52
2018-09-23T18:22:46.947Z,5.50
2018-09-23T18:25:15.285Z,5.63
2018-09-23T18:27:43.606Z,4.07
2018-09-23T18:30:11.954Z,2.80
2018-09-23T18:32:40.225Z,2.60
2018-09-23T18:35:08.897Z,3.20
2018-09-23T18:37:38.249Z,2.65
2018-09-23T18:40:07.136Z,2.40
2018-09-23T18:42:35.632Z,2.70
2018-09-23T18:45:04.050Z,3.30
2018-09-23T18:47:32.337Z,3.45
2018-09-23T18:50:00.703Z,3.43
2018-09-23T18:52:28.998Z,3.43
2018-09-23T18:55:02.674Z,3.90
2018-09-23T18:57:31.201Z,4.10
2018-09-23T19:00:00.217Z,3.87
2018-09-23T19:02:28.875Z,4.60
2018-09-23T19:04:57.222Z,4.10
2018-09-23T19:07:25.584Z,4.30
2018-09-23T19:09:53.848Z,3.70
2018-09-23T19:12:22.301Z,4.80
2018-09-23T19:14:50.757Z,4.30
2018-09-23T19:17:19.218Z,4.00
2018-09-23T19:19:53.171Z,3.50
2018-09-23T19:22:26.685Z,3.50
2018-09-23T19:24:55.001Z,3.30
2018-09-23T19:27:23.340Z,3.42
2018-09-23T19:29:51.646Z,3.47
2018-09-23T19:32:20.728Z,4.17
2018-09-23T19:34:49.428Z,4.30
2018-09-23T19:37:17.702Z,3.60
2018-09-23T19:39:45.988Z,3.97
2018-09-23T19:42:14.633Z,4.35
2018-09-23T19:44:42.886Z,5.03
2018-09-23T19:47:11.593Z,4.70
2018-09-23T19:49:40.325Z,4.70
2018-09-23T19:52:08.729Z,5.10
2018-09-23T19:54:37.061Z,5.10
2018-09-23T19:57:05.433Z,5.30
2018-09-23T19:59:33.689Z,5.33
2018-09-23T20:02:01.953Z,5.20
2018-09-23T20:04:30.240Z,5.40
2018-09-23T20:06:58.556Z,5.58
2018-09-23T20:09:26.825Z,5.40
2018-09-23T20:11:55.176Z,5.22
2018-09-23T20:14:23.449Z,5.80
2018-09-23T20:16:51.722Z,5.70
2018-09-23T20:19:20.029Z,4.93
2018-09-23T20:21:48.289Z,4.78
2018-09-23T20:24:17.047Z,5.30
2018-09-23T20:26:45.386Z,4.90
2018-09-23T20:29:13.692Z,5.20
2018-09-23T20:31:43.005Z,5.53
2018-09-23T20:34:11.285Z,5.27
2018-09-23T20:36:39.580Z,5.40
2018-09-23T20:39:08.753Z,5.80
2018-09-23T20:41:37.000Z,5.20
2018-09-23T20:44:05.307Z,5.12
2018-09-23T20:46:33.548Z,5.42
2018-09-23T20:49:01.872Z,5.50
2018-09-23T20:51:30.174Z,5.20
2018-09-23T20:53:58.521Z,5.58
2018-09-23T20:56:27.378Z,5.70
2018-09-23T20:58:55.669Z,5.90
2018-09-23T21:01:23.936Z,6.30
2018-09-23T21:03:52.214Z,6.42
2018-09-23T21:06:20.491Z,6.80
2018-09-23T21:08:48.777Z,6.20
2018-09-23T21:11:17.028Z,6.40
2018-09-23T21:13:45.301Z,6.47
2018-09-23T21:16:13.605Z,6.80
2018-09-23T21:18:41.912Z,5.60
2018-09-23T21:21:10.153Z,5.33
2018-09-23T21:23:38.416Z,5.60
2018-09-23T21:26:06.669Z,5.40
2018-09-23T21:28:34.945Z,5.05
2018-09-23T21:31:03.188Z,5.65
2018-09-23T21:33:31.429Z,4.62
2018-09-23T21:35:59.705Z,5.03
2018-09-23T21:38:27.993Z,4.60
2018-09-23T21:40:56.262Z,3.90
2018-09-23T21:43:24.500Z,4.40
2018-09-23T21:45:52.989Z,3.60
2018-09-23T21:48:21.297Z,3.75
2018-09-23T21:50:50.045Z,3.75
2018-09-23T21:53:18.330Z,3.83
2018-09-23T21:55:46.602Z,3.95
2018-09-23T21:58:14.836Z,3.40
2018-09-23T22:00:43.889Z,3.50
2018-09-23T22:03:13.406Z,4.20
2018-09-23T22:05:41.625Z,3.60
2018-09-23T22:08:10.632Z,3.30
2018-09-23T22:10:38.882Z,3.47
2018-09-23T22:13:07.553Z,3.02
2018-09-23T22:15:35.821Z,2.90
2018-09-23T22:18:04.096Z,3.65
2018-09-23T22:20:32.374Z,3.10
2018-09-23T22:23:00.613Z,3.47
2018-09-23T22:25:28.905Z,2.75
2018-09-23T22:27:57.177Z,2.83
2018-09-23T22:30:25.448Z,3.10
2018-09-23T22:32:53.705Z,2.62
2018-09-23T22:35:22.805Z,2.80
2018-09-23T22:37:51.067Z,2.35
2018-09-23T22:40:19.365Z,2.45
2018-09-23T22:42:47.613Z,2.60
2018-09-23T22:45:15.917Z,2.57
2018-09-23T22:47:44.200Z,2.60
2018-09-23T22:50:12.473Z,2.60
2018-09-23T22:52:40.772Z,2.90
2018-09-23T22:55:09.048Z,2.33
2018-09-23T22:57:37.313Z,2.70
2018-09-23T23:00:05.621Z,2.30
2018-09-23T23:02:33.896Z,2.30
2018-09-23T23:05:02.181Z,2.60
2018-09-23T23:07:30.432Z,2.65
2018-09-23T23:09:58.733Z,2.40
2018-09-23T23:12:27.002Z,2.10
2018-09-23T23:14:55.272Z,2.30
2018-09-23T23:17:23.525Z,2.25
2018-09-23T23:19:51.776Z,2.80
2018-09-23T23:22:20.021Z,2.30
2018-09-23T23:24:48.280Z,2.90
2018-09-23T23:27:16.521Z,2.90
2018-09-23T23:29:44.809Z,2.30
2018-09-23T23:32:13.093Z,3.30
2018-09-23T23:34:41.337Z,2.30
2018-09-23T23:37:09.605Z,3.37
2018-09-23T23:39:37.869Z,2.80
2018-09-23T23:42:06.166Z,2.67
2018-09-23T23:44:34.413Z,2.27
2018-09-23T23:47:02.674Z,2.58
2018-09-23T23:49:30.925Z,2.60
2018-09-23T23:51:59.188Z,2.83
2018-09-23T23:54:27.425Z,2.40
2018-09-23T23:56:55.708Z,2.10
2018-09-23T23:59:23.961Z,2.10
